createdAt,value
2023-03-02T00:01:15.741Z,8.43
2023-03-02T00:04:21.859Z,8.63
2023-03-02T00:07:28.735Z,9.33
2023-03-02T00:10:32.164Z,8.63
2023-03-02T00:13:38.005Z,7.53
2023-03-02T00:16:41.644Z,7.73
2023-03-02T00:19:44.858Z,6.97
2023-03-02T00:22:48.255Z,8.07
2023-03-02T00:25:51.183Z,7.87
2023-03-02T00:28:55.484Z,7.40
2023-03-02T00:31:58.455Z,7.43
2023-03-02T00:35:01.443Z,7.33
2023-03-02T00:38:04.364Z,7.07
2023-03-02T00:41:07.288Z,6.00
2023-03-02T00:44:17.665Z,6.20
2023-03-02T00:47:20.823Z,5.47
2023-03-02T00:50:24.208Z,6.03
2023-03-02T00:53:27.217Z,6.07
2023-03-02T00:56:30.979Z,6.07
2023-03-02T00:59:37.564Z,6.37
2023-03-02T01:02:43.966Z,6.13
2023-03-02T01:05:47.599Z,5.87
2023-03-02T01:08:50.528Z,7.07
2023-03-02T01:11:53.719Z,6.27
2023-03-02T01:14:57.958Z,6.20
2023-03-02T01:18:01.480Z,7.27
2023-03-02T01:21:05.631Z,6.43
2023-03-02T01:24:09.531Z,6.17
2023-03-02T01:27:12.940Z,5.90
2023-03-02T01:30:17.404Z,5.67
2023-03-02T01:33:21.235Z,5.53
2023-03-02T01:36:25.079Z,5.13
2023-03-02T01:39:28.045Z,6.13
2023-03-02T01:42:35.725Z,5.80
2023-03-02T01:45:54.808Z,5.67
2023-03-02T01:49:01.533Z,6.70
2023-03-02T01:52:04.973Z,5.60
2023-03-02T01:55:13.426Z,6.67
2023-03-02T01:58:17.766Z,6.07
2023-03-02T02:01:22.712Z,5.60
2023-03-02T02:04:27.973Z,5.70
2023-03-02T02:07:30.984Z,6.37
2023-03-02T02:10:35.117Z,5.67
2023-03-02T02:13:38.114Z,6.00
2023-03-02T02:16:42.626Z,5.93
2023-03-02T02:20:08.880Z,5.57
2023-03-02T02:23:25.624Z,5.30
2023-03-02T02:26:35.566Z,5.80
2023-03-02T02:29:45.538Z,5.67
2023-03-02T02:32:50.580Z,5.47
2023-03-02T02:35:56.534Z,4.80
2023-03-02T02:39:03.469Z,5.17
2023-03-02T02:42:13.891Z,5.60
2023-03-02T02:45:23.312Z,5.00
2023-03-02T02:48:30.963Z,4.93
2023-03-02T02:51:34.463Z,5.13
2023-03-02T02:54:38.431Z,5.03
2023-03-02T02:57:43.228Z,5.20
2023-03-02T03:00:46.252Z,5.03
2023-03-02T03:03:53.745Z,5.37
2023-03-02T03:06:58.990Z,5.40
2023-03-02T03:10:08.480Z,6.00
2023-03-02T03:13:13.731Z,6.00
2023-03-02T03:16:18.692Z,6.40
2023-03-02T03:19:24.427Z,6.73
2023-03-02T03:22:27.401Z,6.53
2023-03-02T03:25:32.040Z,6.97
2023-03-02T03:28:36.693Z,6.40
2023-03-02T03:31:40.025Z,5.43
2023-03-02T03:34:42.990Z,6.07
2023-03-02T03:37:48.395Z,5.50
2023-03-02T03:40:51.366Z,5.73
2023-03-02T03:43:55.835Z,5.80
2023-03-02T03:46:59.074Z,5.43
2023-03-02T03:50:01.978Z,5.40
2023-03-02T03:53:04.903Z,5.47
2023-03-02T03:56:08.619Z,5.63
2023-03-02T03:59:15.704Z,6.10
2023-03-02T04:02:19.121Z,5.80
2023-03-02T04:05:22.151Z,6.10
2023-03-02T04:08:25.069Z,5.67
2023-03-02T04:11:27.965Z,6.00
2023-03-02T04:14:32.307Z,5.83
2023-03-02T04:17:35.374Z,5.10
2023-03-02T04:20:38.330Z,6.10
2023-03-02T04:23:41.248Z,5.17
2023-03-02T04:26:44.972Z,5.10
2023-03-02T04:29:49.286Z,5.90
2023-03-02T04:32:52.361Z,6.67
2023-03-02T04:35:55.484Z,5.90
2023-03-02T04:38:58.386Z,6.40
2023-03-02T04:42:01.436Z,6.40
2023-03-02T04:45:06.586Z,6.40
2023-03-02T04:48:09.604Z,6.23
2023-03-02T04:51:18.333Z,6.57
2023-03-02T04:54:23.291Z,6.43
2023-03-02T04:57:26.352Z,5.37
2023-03-02T05:00:33.943Z,6.53
2023-03-02T05:03:36.935Z,6.50
2023-03-02T05:06:40.379Z,6.57
2023-03-02T05:09:43.360Z,7.00
2023-03-02T05:12:57.789Z,6.10
2023-03-02T05:16:02.166Z,6.33
2023-03-02T05:19:06.679Z,6.00
2023-03-02T05:22:09.644Z,5.83
2023-03-02T05:25:13.388Z,6.07
2023-03-02T05:28:16.299Z,6.90
2023-03-02T05:31:28.380Z,5.90
2023-03-02T05:34:31.369Z,6.67
2023-03-02T05:37:34.306Z,5.60
2023-03-02T05:40:37.593Z,6.47
2023-03-02T05:43:40.607Z,6.33
2023-03-02T05:46:44.915Z,6.80
2023-03-02T05:49:47.883Z,5.80
2023-03-02T05:52:51.298Z,7.07
2023-03-02T05:55:54.838Z,6.67
2023-03-02T05:58:57.746Z,7.50
2023-03-02T06:02:02.510Z,6.60
2023-03-02T06:05:06.156Z,6.90
2023-03-02T06:08:09.170Z,7.13
2023-03-02T06:11:12.582Z,5.87
2023-03-02T06:14:15.794Z,7.70
2023-03-02T06:17:20.075Z,7.27
2023-03-02T06:20:23.143Z,7.13
2023-03-02T06:23:26.294Z,7.37
2023-03-02T06:26:29.195Z,7.60
2023-03-02T06:29:32.119Z,7.07
2023-03-02T06:32:36.637Z,7.53
2023-03-02T06:35:39.638Z,8.13
2023-03-02T06:38:42.776Z,7.97
2023-03-02T06:41:47.361Z,8.63
2023-03-02T06:44:51.643Z,7.80
2023-03-02T06:47:56.202Z,8.33
2023-03-02T06:50:59.112Z,8.23
2023-03-02T06:54:02.258Z,7.87
2023-03-02T06:57:05.388Z,8.43
2023-03-02T07:00:14.132Z,8.43
2023-03-02T07:03:18.561Z,8.40
2023-03-02T07:06:21.522Z,7.57
2023-03-02T07:09:24.829Z,8.10
2023-03-02T07:12:27.797Z,8.23
2023-03-02T07:15:30.720Z,8.23
2023-03-02T07:18:34.978Z,7.97
2023-03-02T07:21:37.980Z,8.03
2023-03-02T07:24:40.900Z,7.67
2023-03-02T07:27:44.024Z,8.57
2023-03-02T07:30:46.982Z,8.70
2023-03-02T07:33:51.319Z,7.80
2023-03-02T07:36:54.482Z,8.67
2023-03-02T07:40:00.285Z,8.33
2023-03-02T07:43:04.028Z,8.03
2023-03-02T07:46:07.436Z,7.97
2023-03-02T07:49:11.716Z,8.13
2023-03-02T07:52:14.641Z,8.40
2023-03-02T07:55:17.719Z,8.30
2023-03-02T07:58:21.381Z,9.03
2023-03-02T08:01:24.442Z,8.53
2023-03-02T08:04:28.743Z,8.73
2023-03-02T08:07:31.650Z,8.60
2023-03-02T08:10:35.273Z,8.33
2023-03-02T08:13:38.825Z,8.50
2023-03-02T08:16:41.945Z,8.80
2023-03-02T08:19:46.704Z,9.43
2023-03-02T08:22:49.670Z,9.17
2023-03-02T08:25:54.359Z,8.37
2023-03-02T08:28:57.417Z,8.90
2023-03-02T08:32:00.587Z,9.00
2023-03-02T08:35:05.625Z,8.57
2023-03-02T08:38:08.564Z,8.87
2023-03-02T08:41:13.435Z,8.67
2023-03-02T08:44:17.601Z,8.57
2023-03-02T08:47:20.572Z,9.53
2023-03-02T08:50:24.891Z,8.10
2023-03-02T08:53:29.202Z,8.10
2023-03-02T08:56:34.959Z,8.80
2023-03-02T08:59:38.133Z,8.03
2023-03-02T09:02:41.175Z,8.03
2023-03-02T09:05:45.663Z,8.50
2023-03-02T09:08:49.256Z,8.40
2023-03-02T09:11:52.164Z,8.87
2023-03-02T09:14:55.089Z,7.80
2023-03-02T09:17:58.492Z,8.90
2023-03-02T09:21:02.910Z,8.73
2023-03-02T09:24:06.347Z,8.83
2023-03-02T09:27:09.474Z,8.97
2023-03-02T09:30:14.070Z,8.73
2023-03-02T09:33:17.220Z,9.33
2023-03-02T09:36:26.251Z,9.00
2023-03-02T09:39:29.495Z,7.87
2023-03-02T09:43:12.753Z,7.67
2023-03-02T09:46:24.037Z,8.20
2023-03-02T09:49:35.020Z,7.83
2023-03-02T09:52:42.003Z,7.97
2023-03-02T09:55:48.791Z,7.53
2023-03-02T09:58:59.054Z,8.03
2023-03-02T10:02:07.533Z,7.67
2023-03-02T10:05:17.275Z,7.77
2023-03-02T10:08:24.103Z,7.17
2023-03-02T10:11:38.167Z,7.87
2023-03-02T10:14:49.320Z,7.10
2023-03-02T10:18:00.604Z,7.47
2023-03-02T10:21:07.661Z,8.07
2023-03-02T10:24:21.925Z,8.30
2023-03-02T10:27:29.106Z,8.00
2023-03-02T10:30:36.118Z,7.37
2023-03-02T10:33:41.900Z,7.97
2023-03-02T10:36:47.621Z,7.70
2023-03-02T10:39:51.985Z,7.90
2023-03-02T10:42:56.131Z,6.80
2023-03-02T10:46:00.987Z,7.67
2023-03-02T10:49:03.960Z,7.37
2023-03-02T10:52:13.717Z,7.50
2023-03-02T10:55:18.578Z,7.90
2023-03-02T10:58:26.838Z,7.60
2023-03-02T11:01:30.935Z,8.73
2023-03-02T11:04:34.048Z,8.03
2023-03-02T11:07:37.523Z,7.77
2023-03-02T11:10:51.905Z,8.37
2023-03-02T11:13:56.343Z,7.57
2023-03-02T11:17:03.301Z,7.77
2023-03-02T11:20:16.682Z,8.10
2023-03-02T11:23:26.193Z,7.77
2023-03-02T11:26:35.669Z,7.07
2023-03-02T11:29:42.647Z,6.57
2023-03-02T11:32:53.838Z,6.37
2023-03-02T11:36:00.062Z,6.30
2023-03-02T11:39:09.086Z,7.13
2023-03-02T11:42:20.809Z,6.47
2023-03-02T11:45:27.174Z,6.37
2023-03-02T11:48:34.518Z,6.20
2023-03-02T11:51:47.382Z,6.43
2023-03-02T11:55:04.342Z,6.50
2023-03-02T11:58:13.170Z,5.73
2023-03-02T12:01:21.224Z,6.60
2023-03-02T12:04:32.197Z,6.53
2023-03-02T12:07:35.852Z,6.77
2023-03-02T12:10:41.850Z,6.17
2023-03-02T12:13:47.379Z,6.50
2023-03-02T12:16:50.918Z,6.70
2023-03-02T12:19:55.979Z,6.83
2023-03-02T12:23:10.626Z,6.33
2023-03-02T12:26:27.836Z,5.70
2023-03-02T12:29:41.644Z,5.93
2023-03-02T12:32:47.277Z,5.67
2023-03-02T12:35:57.074Z,5.97
2023-03-02T12:39:16.211Z,5.70
2023-03-02T12:42:39.777Z,5.70
2023-03-02T12:45:59.322Z,6.17
2023-03-02T12:49:12.830Z,5.77
2023-03-02T12:52:28.759Z,5.93
2023-03-02T12:55:32.827Z,6.53
2023-03-02T12:58:35.897Z,6.60
2023-03-02T13:01:40.403Z,6.47
2023-03-02T13:04:43.599Z,6.77
2023-03-02T13:07:55.634Z,7.70
2023-03-02T13:11:01.291Z,6.47
2023-03-02T13:14:19.861Z,6.30
2023-03-02T13:17:27.167Z,6.00
2023-03-02T13:20:31.316Z,5.90
2023-03-02T13:23:35.225Z,5.53
2023-03-02T13:26:39.791Z,5.70
2023-03-02T13:29:42.754Z,5.03
2023-03-02T13:32:47.002Z,4.47
2023-03-02T13:35:50.125Z,5.23
2023-03-02T13:38:56.005Z,5.10
2023-03-02T13:42:01.232Z,5.97
2023-03-02T13:45:22.107Z,5.13
2023-03-02T13:48:27.710Z,5.53
2023-03-02T13:51:33.477Z,5.07
2023-03-02T13:54:38.341Z,4.83
2023-03-02T13:57:41.661Z,4.80
2023-03-02T14:00:45.158Z,5.27
2023-03-02T14:03:49.464Z,4.63
2023-03-02T14:06:53.127Z,4.50
2023-03-02T14:09:57.594Z,3.90
2023-03-02T14:13:05.120Z,4.47
2023-03-02T14:16:11.135Z,4.30
2023-03-02T14:19:16.306Z,4.57
2023-03-02T14:22:20.019Z,4.67
2023-03-02T14:25:23.116Z,4.67
2023-03-02T14:28:29.364Z,4.70
2023-03-02T14:31:32.683Z,3.57
2023-03-02T14:34:37.420Z,3.67
2023-03-02T14:37:43.645Z,3.43
2023-03-02T14:40:46.616Z,3.70
2023-03-02T14:43:50.044Z,4.27
2023-03-02T14:46:53.848Z,3.33
2023-03-02T14:49:58.714Z,3.87
2023-03-02T14:53:01.692Z,3.83
2023-03-02T14:56:06.847Z,4.47
2023-03-02T14:59:13.263Z,4.13
2023-03-02T15:02:25.211Z,4.20
2023-03-02T15:05:31.964Z,4.67
2023-03-02T15:08:34.942Z,4.10
2023-03-02T15:11:37.889Z,3.90
2023-03-02T15:14:41.225Z,4.07
2023-03-02T15:17:44.233Z,4.00
2023-03-02T15:20:48.563Z,4.93
2023-03-02T15:23:51.892Z,4.30
2023-03-02T15:26:54.899Z,4.17
2023-03-02T15:29:57.816Z,4.10
2023-03-02T15:33:00.774Z,3.70
2023-03-02T15:36:06.331Z,4.37
2023-03-02T15:39:13.687Z,3.80
2023-03-02T15:42:16.647Z,4.30
2023-03-02T15:45:19.737Z,4.17
2023-03-02T15:48:22.736Z,3.80
2023-03-02T15:51:27.112Z,4.40
2023-03-02T15:54:30.240Z,3.70
2023-03-02T15:57:38.012Z,4.50
2023-03-02T16:00:40.978Z,4.20
2023-03-02T16:03:45.280Z,4.70
2023-03-02T16:06:50.011Z,4.67
2023-03-02T16:09:53.170Z,4.50
2023-03-02T16:12:56.087Z,4.33
2023-03-02T16:16:01.712Z,4.00
2023-03-02T16:19:04.638Z,4.43
2023-03-02T16:22:08.906Z,3.90
2023-03-02T16:25:11.967Z,4.53
2023-03-02T16:28:15.918Z,4.27
2023-03-02T16:31:20.742Z,4.17
2023-03-02T16:34:23.801Z,3.97
2023-03-02T16:37:28.229Z,3.97
2023-03-02T16:40:31.179Z,4.60
2023-03-02T16:43:34.096Z,4.30
2023-03-02T16:46:41.795Z,4.70
2023-03-02T16:49:44.869Z,4.43
2023-03-02T16:52:49.177Z,4.73
2023-03-02T16:55:52.195Z,4.57
2023-03-02T16:58:55.719Z,3.97
2023-03-02T17:01:58.826Z,5.37
2023-03-02T17:05:01.933Z,4.17
2023-03-02T17:08:10.027Z,4.80
2023-03-02T17:11:13.156Z,5.20
2023-03-02T17:14:16.159Z,4.93
2023-03-02T17:17:19.173Z,5.50
2023-03-02T17:20:22.682Z,5.33
2023-03-02T17:23:27.994Z,5.50
2023-03-02T17:26:31.052Z,5.57
2023-03-02T17:29:34.187Z,4.87
2023-03-02T17:32:37.211Z,5.43
2023-03-02T17:35:40.328Z,6.37
2023-03-02T17:38:44.676Z,5.67
2023-03-02T17:41:47.673Z,5.60
2023-03-02T17:44:50.758Z,5.90
2023-03-02T17:47:55.558Z,5.57
2023-03-02T17:50:58.555Z,6.30
2023-03-02T17:54:03.195Z,6.23
2023-03-02T17:57:07.546Z,6.70
2023-03-02T18:00:14.172Z,6.93
2023-03-02T18:03:17.225Z,6.30
2023-03-02T18:06:20.717Z,6.87
2023-03-02T18:09:25.105Z,6.70
2023-03-02T18:12:28.193Z,7.13
2023-03-02T18:15:31.445Z,6.57
2023-03-02T18:18:35.096Z,6.33
2023-03-02T18:21:40.073Z,6.97
2023-03-02T18:24:44.436Z,6.23
2023-03-02T18:27:47.562Z,7.03
2023-03-02T18:30:50.622Z,7.57
2023-03-02T18:33:53.571Z,7.20
2023-03-02T18:36:56.626Z,6.33
2023-03-02T18:40:01.872Z,6.90
2023-03-02T18:43:04.944Z,8.00
2023-03-02T18:46:10.392Z,7.50
2023-03-02T18:49:13.396Z,7.73
2023-03-02T18:52:16.594Z,7.43
2023-03-02T18:55:21.154Z,8.17
2023-03-02T18:58:25.793Z,6.93
2023-03-02T19:01:32.022Z,7.20
2023-03-02T19:04:35.324Z,7.80
2023-03-02T19:07:38.326Z,7.20
2023-03-02T19:10:42.800Z,7.40
2023-03-02T19:13:45.749Z,6.97
2023-03-02T19:16:49.186Z,6.57
2023-03-02T19:19:52.415Z,8.33
2023-03-02T19:22:55.602Z,8.10
2023-03-02T19:26:00.137Z,7.17
2023-03-02T19:29:03.187Z,7.30
2023-03-02T19:32:07.870Z,8.40
2023-03-02T19:35:12.650Z,7.60
2023-03-02T19:38:15.736Z,7.47
2023-03-02T19:41:21.936Z,7.60
2023-03-02T19:44:25.654Z,7.40
2023-03-02T19:47:29.721Z,7.80
2023-03-02T19:50:32.932Z,7.53
2023-03-02T19:53:37.358Z,7.93
2023-03-02T19:56:43.471Z,7.57
2023-03-02T19:59:46.634Z,8.10
2023-03-02T20:02:50.034Z,9.03
2023-03-02T20:05:55.156Z,7.90
2023-03-02T20:08:58.976Z,7.40
2023-03-02T20:12:05.908Z,8.13
2023-03-02T20:15:09.577Z,8.07
2023-03-02T20:18:16.039Z,8.77
2023-03-02T20:21:19.794Z,8.57
2023-03-02T20:24:22.853Z,7.63
2023-03-02T20:27:27.294Z,8.67
2023-03-02T20:30:32.940Z,8.57
2023-03-02T20:33:40.734Z,8.47
2023-03-02T20:36:44.256Z,8.47
2023-03-02T20:39:49.598Z,7.97
2023-03-02T20:42:54.408Z,8.63
2023-03-02T20:45:58.442Z,9.50
2023-03-02T20:49:02.425Z,9.70
2023-03-02T20:52:06.452Z,10.53
2023-03-02T20:55:10.663Z,12.37
2023-03-02T20:58:15.410Z,11.83
2023-03-02T21:01:20.610Z,13.40
2023-03-02T21:04:23.709Z,12.27
2023-03-02T21:07:26.947Z,12.20
2023-03-02T21:10:33.630Z,11.90
2023-03-02T21:13:39.093Z,10.50
2023-03-02T21:16:43.704Z,12.17
2023-03-02T21:19:46.882Z,10.43
2023-03-02T21:22:49.959Z,10.20
2023-03-02T21:25:52.900Z,10.50
2023-03-02T21:28:57.414Z,14.43
2023-03-02T21:32:00.426Z,15.17
2023-03-02T21:35:03.488Z,12.37
2023-03-02T21:38:07.254Z,12.40
2023-03-02T21:41:10.485Z,13.43
2023-03-02T21:44:14.861Z,11.53
2023-03-02T21:47:17.835Z,12.77
2023-03-02T21:50:26.372Z,12.17
2023-03-02T21:53:29.463Z,11.70
2023-03-02T21:56:32.941Z,10.53
2023-03-02T21:59:37.383Z,10.27
2023-03-02T22:02:40.421Z,11.00
2023-03-02T22:05:43.487Z,10.97
2023-03-02T22:08:46.918Z,11.60
2023-03-02T22:11:51.095Z,10.70
2023-03-02T22:14:56.373Z,11.37
2023-03-02T22:18:00.660Z,11.47
2023-03-02T22:21:21.974Z,11.07
2023-03-02T22:24:27.433Z,10.40
2023-03-02T22:27:34.217Z,10.83
2023-03-02T22:30:38.474Z,10.93
2023-03-02T22:33:41.509Z,11.53
2023-03-02T22:36:44.530Z,10.97
2023-03-02T22:39:48.092Z,10.53
2023-03-02T22:42:52.070Z,11.40
2023-03-02T22:45:59.962Z,11.37
2023-03-02T22:49:11.566Z,10.80
2023-03-02T22:52:17.329Z,11.70
2023-03-02T22:55:35.555Z,13.20
2023-03-02T22:58:46.332Z,12.73
2023-03-02T23:01:51.369Z,11.87
2023-03-02T23:04:54.412Z,12.00
2023-03-02T23:08:19.550Z,13.27
2023-03-02T23:11:24.177Z,13.97
2023-03-02T23:14:29.295Z,14.77
2023-03-02T23:17:37.212Z,14.27
2023-03-02T23:20:40.202Z,13.80
2023-03-02T23:23:43.183Z,13.00
2023-03-02T23:26:46.212Z,13.57
2023-03-02T23:29:49.154Z,13.30
2023-03-02T23:32:53.806Z,14.47
2023-03-02T23:35:56.951Z,12.57
2023-03-02T23:39:00.056Z,12.87
2023-03-02T23:42:03.115Z,12.47
2023-03-02T23:45:07.062Z,13.47
2023-03-02T23:48:11.423Z,13.10
2023-03-02T23:51:14.433Z,13.83
2023-03-02T23:54:17.421Z,14.67
2023-03-02T23:57:20.399Z,14.10
